Time;durP1;ratioP1;P1;durP2;ratioP2;P2;SDS_P1;SDS_P2;PMS_P1;PMS_P2;Temp;Humidity;BMP_temperature;BMP_pressure;BME280_temperature;BME280_humidity;BME280_pressure;Samples;Min_cycle;Max_cycle;Signal;HPM_P1;HPM_P2
2023/01/18 00:00:40;;;;;;;48.33;29.73;;;;;;;42.34;34.88;101011.75;4927134;29;20439;-85
2023/01/18 00:03:11;;;;;;;48.63;28.90;;;;;;;42.31;34.88;101013.22;4934196;29;20436;-85
2023/01/18 00:05:39;;;;;;;45.70;27.60;;;;;;;42.34;34.89;101003.56;4934397;29;20455;-85
2023/01/18 00:08:18;;;;;;;47.70;28.00;;;;;;;42.31;34.92;101012.44;4933463;29;21032;-84
2023/01/18 00:10:45;;;;;;;50.33;28.70;;;;;;;42.31;34.82;101009.72;4932943;29;20460;-84
2023/01/18 00:13:11;;;;;;;53.33;27.27;;;;;;;42.28;34.88;100997.53;4929811;29;20497;-85
2023/01/18 00:15:40;;;;;;;48.13;30.37;;;;;;;42.30;35.26;101002.66;4925584;29;20519;-84
2023/01/18 00:18:06;;;;;;;42.13;29.47;;;;;;;42.25;34.97;100991.97;4933814;29;20429;-84
2023/01/18 00:20:32;;;;;;;46.93;28.87;;;;;;;42.26;35.18;100990.81;4934486;29;20811;-86
2023/01/18 00:23:00;;;;;;;50.37;28.80;;;;;;;42.25;35.07;100984.56;4932802;29;20452;-87
2023/01/18 00:25:27;;;;;;;46.87;29.70;;;;;;;42.23;35.20;100984.09;4933809;29;20432;-87
2023/01/18 00:27:55;;;;;;;43.33;29.30;;;;;;;42.18;34.73;100972.63;4928660;29;20449;-82
2023/01/18 00:30:27;;;;;;;44.07;28.17;;;;;;;42.20;34.91;100982.03;4926521;29;20823;-83
2023/01/18 00:32:55;;;;;;;38.50;25.73;;;;;;;42.19;35.15;100975.00;4940076;28;20575;-79
2023/01/18 00:35:22;;;;;;;51.50;28.97;;;;;;;42.17;34.89;100968.28;4930999;29;20451;-78
2023/01/18 00:37:50;;;;;;;50.07;28.63;;;;;;;42.17;34.86;100974.53;4899626;29;20930;-80
2023/01/18 00:40:17;;;;;;;40.50;28.70;;;;;;;42.16;34.95;100972.94;4914936;29;20540;-80
2023/01/18 00:45:27;;;;;;;52.10;29.87;;;;;;;42.17;34.50;100958.16;4917103;29;20798;-79
2023/01/18 00:47:53;;;;;;;41.87;27.47;;;;;;;42.18;34.64;100964.44;4883376;29;20453;-80
2023/01/18 00:50:47;;;;;;;51.57;27.70;;;;;;;42.12;34.78;100961.09;4930243;29;20429;-79
2023/01/18 00:53:13;;;;;;;48.70;29.53;;;;;;;42.10;34.61;100952.44;4929992;29;20872;-80
2023/01/18 00:55:39;;;;;;;52.87;26.83;;;;;;;42.08;34.37;100958.22;4934102;29;20978;-82
2023/01/18 00:58:05;;;;;;;57.20;29.47;;;;;;;42.07;34.41;100951.19;4935542;29;20460;-82
2023/01/18 01:00:32;;;;;;;37.70;25.70;;;;;;;42.08;34.56;100951.97;4915416;29;20499;-82
2023/01/18 01:02:58;;;;;;;41.60;27.97;;;;;;;42.06;34.98;100935.97;4914796;29;20867;-80
2023/01/18 01:08:16;;;;;;;49.53;27.90;;;;;;;42.11;34.64;100945.84;4915571;29;20429;-79
2023/01/18 01:10:49;;;;;;;45.83;26.07;;;;;;;42.07;34.79;100940.28;4916243;29;20505;-80
2023/01/18 01:27:10;;;;;;;40.70;30.13;;;;;;;41.97;34.67;100918.88;4925938;29;20860;-89
2023/01/18 01:29:36;;;;;;;48.67;33.20;;;;;;;41.95;34.88;100923.88;4917515;29;20840;-88
2023/01/18 01:32:03;;;;;;;63.33;40.03;;;;;;;41.89;34.96;100917.03;4923578;29;20547;-89
2023/01/18 01:34:29;;;;;;;73.07;43.37;;;;;;;41.77;35.02;100915.03;4914638;29;20452;-89
2023/01/18 01:36:55;;;;;;;66.40;40.73;;;;;;;41.74;34.93;100915.69;4924339;29;20431;-87
2023/01/18 01:39:22;;;;;;;72.07;43.10;;;;;;;41.71;34.77;100910.88;4921451;29;20433;-85
2023/01/18 01:41:48;;;;;;;57.97;43.47;;;;;;;41.63;35.52;100906.28;4929586;29;20928;-86
2023/01/18 01:44:18;;;;;;;71.93;49.10;;;;;;;41.54;35.37;100903.63;4936806;29;20436;-85
2023/01/18 01:46:52;;;;;;;70.63;46.87;;;;;;;41.56;35.30;100895.94;4938819;29;20432;-83
2023/01/18 01:49:31;;;;;;;68.87;50.70;;;;;;;41.48;34.96;100890.53;4934985;29;20491;-82
2023/01/18 01:52:14;;;;;;;79.20;49.33;;;;;;;41.42;35.49;100895.34;4936802;29;20459;-85
2023/01/18 01:54:53;;;;;;;92.53;52.80;;;;;;;41.33;35.39;100891.91;4936738;29;20428;-87
2023/01/18 01:57:36;;;;;;;74.30;50.10;;;;;;;41.36;35.51;100887.72;4929063;29;20436;-84
2023/01/18 02:00:29;;;;;;;72.07;50.07;;;;;;;41.32;35.36;100887.56;4929606;29;20452;-85
2023/01/18 02:03:08;;;;;;;81.97;50.40;;;;;;;41.35;35.60;100884.19;4929595;29;20785;-84
2023/01/18 02:05:41;;;;;;;63.87;49.87;;;;;;;41.27;35.51;100885.81;4926757;29;20452;-84
2023/01/18 02:08:10;;;;;;;71.00;46.63;;;;;;;41.24;35.33;100883.75;4921712;29;20439;-83
2023/01/18 02:10:37;;;;;;;71.10;47.20;;;;;;;41.22;35.42;100877.84;4933737;29;20465;-83
2023/01/18 02:13:06;;;;;;;69.27;46.77;;;;;;;41.21;35.60;100880.91;4930968;29;20963;-79
2023/01/18 02:15:56;;;;;;;66.90;47.77;;;;;;;41.15;35.44;100890.38;4911735;29;20432;-79
2023/01/18 02:18:39;;;;;;;60.53;48.10;;;;;;;41.12;35.69;100883.66;4952455;29;20427;-82
2023/01/18 02:21:16;;;;;;;58.30;40.33;;;;;;;41.08;35.52;100880.00;4919033;29;20442;-84
2023/01/18 02:23:53;;;;;;;72.03;45.77;;;;;;;41.11;35.83;100884.78;4920131;29;20980;-85
2023/01/18 02:26:48;;;;;;;66.03;44.60;;;;;;;41.07;35.41;100881.94;4925103;29;20997;-79
2023/01/18 02:29:17;;;;;;;67.70;49.07;;;;;;;41.10;35.91;100883.19;4923395;29;20420;-82
2023/01/18 02:32:16;;;;;;;78.00;48.20;;;;;;;41.06;35.79;100879.50;4933872;29;20480;-80
2023/01/18 02:34:48;;;;;;;66.63;48.00;;;;;;;41.04;35.60;100877.13;4921683;29;20811;-87
2023/01/18 02:37:47;;;;;;;62.53;42.60;;;;;;;41.10;35.52;100869.56;4900143;29;20436;-86
2023/01/18 02:40:27;;;;;;;66.83;44.47;;;;;;;41.14;35.54;100875.97;4895625;29;20543;-87
2023/01/18 02:48:36;;;;;;;70.43;44.60;;;;;;;40.93;35.78;100877.81;4910990;29;20441;-82
2023/01/18 02:51:03;;;;;;;64.87;42.80;;;;;;;40.98;35.45;100880.38;4909362;29;20533;-82
2023/01/18 02:53:30;;;;;;;71.07;48.77;;;;;;;41.03;35.85;100874.75;4898120;29;20472;-80
2023/01/18 02:56:22;;;;;;;63.40;46.07;;;;;;;41.00;35.46;100875.38;4903206;29;20456;-80
2023/01/18 02:59:05;;;;;;;63.90;44.10;;;;;;;40.89;36.01;100866.78;4910264;29;20465;-80
2023/01/18 03:01:43;;;;;;;70.97;45.43;;;;;;;40.88;35.87;100865.16;4917514;29;20441;-80
2023/01/18 03:04:20;;;;;;;67.53;46.60;;;;;;;40.89;36.08;100865.97;4932018;29;20432;-80
2023/01/18 03:06:52;;;;;;;67.63;45.37;;;;;;;40.89;36.02;100864.06;4915384;29;20429;-80
2023/01/18 03:09:20;;;;;;;70.97;46.90;;;;;;;40.85;36.18;100865.03;4917699;29;20845;-80
2023/01/18 03:12:16;;;;;;;58.33;44.10;;;;;;;40.79;36.31;100864.41;4897580;29;21096;-80
2023/01/18 03:15:08;;;;;;;58.20;44.97;;;;;;;40.78;35.94;100868.25;4898340;29;20942;-82
2023/01/18 03:17:41;;;;;;;83.60;47.37;;;;;;;40.78;36.20;100866.34;4900952;29;20445;-82
2023/01/18 03:20:13;;;;;;;72.03;48.90;;;;;;;40.84;35.72;100864.25;4906168;29;20434;-80
2023/01/18 03:23:39;;;;;;;60.07;48.33;;;;;;;40.88;35.73;100867.88;4897451;29;20493;-80
2023/01/18 03:26:13;;;;;;;77.10;48.37;;;;;;;40.88;35.88;100870.59;4887161;29;20803;-80
2023/01/18 03:34:46;;;;;;;80.97;47.27;;;;;;;40.91;35.94;100880.88;4926561;29;20462;-80
2023/01/18 03:37:40;;;;;;;86.97;44.20;;;;;;;40.93;35.75;100880.53;4937058;29;20523;-80
2023/01/18 03:40:11;;;;;;;67.87;45.03;;;;;;;40.95;36.21;100883.75;4916109;29;20547;-80
2023/01/18 03:43:06;;;;;;;68.50;52.27;;;;;;;40.90;35.89;100881.19;4947303;29;20434;-80
2023/01/18 03:45:37;;;;;;;75.07;48.47;;;;;;;40.94;35.87;100876.69;4935752;29;20955;-80
2023/01/18 03:48:06;;;;;;;58.30;45.90;;;;;;;40.96;35.96;100879.91;4937758;29;20486;-80
2023/01/18 03:50:44;;;;;;;79.33;44.20;;;;;;;40.97;35.63;100881.50;4927259;29;20951;-80
2023/01/18 03:53:15;;;;;;;58.60;42.10;;;;;;;40.95;35.63;100881.81;4928707;29;20970;-80
2023/01/18 03:55:55;;;;;;;56.07;41.87;;;;;;;40.95;35.92;100879.09;4921464;29;20424;-80
2023/01/18 03:58:29;;;;;;;74.07;44.97;;;;;;;40.90;35.73;100878.47;4935008;29;20460;-80
2023/01/18 04:00:55;;;;;;;57.30;41.60;;;;;;;40.98;35.85;100880.38;4935636;29;20451;-80
2023/01/18 04:03:21;;;;;;;63.87;39.67;;;;;;;41.00;35.85;100880.81;4934488;29;20456;-80
2023/01/18 04:05:48;;;;;;;74.53;45.83;;;;;;;41.00;35.83;100878.09;4925913;29;20482;-80
2023/01/18 04:08:15;;;;;;;58.40;45.27;;;;;;;40.98;35.70;100881.16;4924305;29;20442;-80
2023/01/18 04:10:41;;;;;;;69.97;43.30;;;;;;;40.97;35.76;100886.94;4919201;29;20464;-80
2023/01/18 04:13:07;;;;;;;59.60;43.13;;;;;;;40.97;35.50;100881.50;4918989;29;20491;-80
2023/01/18 04:15:32;;;;;;;63.53;47.30;;;;;;;40.97;35.99;100889.66;4919165;29;20432;-82
2023/01/18 04:17:58;;;;;;;67.03;43.80;;;;;;;40.94;36.13;100888.38;4919033;29;20432;-80
2023/01/18 04:20:24;;;;;;;66.20;48.57;;;;;;;40.90;36.09;100881.19;4919135;29;20966;-80
2023/01/18 04:22:54;;;;;;;60.40;43.67;;;;;;;40.93;35.81;100881.34;4919120;29;20451;-80
2023/01/18 04:25:20;;;;;;;67.37;43.47;;;;;;;40.94;36.36;100896.53;4934848;29;20491;-80
2023/01/18 04:27:46;;;;;;;50.40;40.00;;;;;;;40.95;36.09;100889.19;4937361;29;20515;-80
2023/01/18 04:30:12;;;;;;;63.63;40.10;;;;;;;40.97;35.92;100886.94;4936468;29;20511;-80
2023/01/18 04:32:41;;;;;;;53.53;40.37;;;;;;;40.95;35.93;100889.19;4915892;29;20595;-80
2023/01/18 04:35:08;;;;;;;57.07;41.43;;;;;;;40.90;35.82;100887.44;4916139;29;20800;-80
2023/01/18 04:37:36;;;;;;;60.23;42.93;;;;;;;40.87;36.13;100887.25;4917148;29;20436;-80
2023/01/18 04:40:04;;;;;;;53.13;42.70;;;;;;;40.85;35.56;100889.50;4916252;29;20464;-81
2023/01/18 04:42:30;;;;;;;65.70;44.70;;;;;;;40.82;35.64;100899.09;4916797;29;20430;-82
2023/01/18 04:44:56;;;;;;;60.10;42.40;;;;;;;40.82;35.97;100890.94;4933339;29;20511;-82
2023/01/18 04:47:22;;;;;;;61.87;46.73;;;;;;;40.86;35.92;100904.69;4933392;29;20479;-82
2023/01/18 04:49:48;;;;;;;64.50;41.97;;;;;;;40.86;35.64;100899.25;4928859;29;20428;-80
2023/01/18 04:52:14;;;;;;;57.30;43.93;;;;;;;40.83;35.97;100899.94;4932676;29;20524;-80
2023/01/18 04:54:40;;;;;;;62.53;43.77;;;;;;;40.80;36.07;100895.91;4933448;29;20432;-80
2023/01/18 04:57:05;;;;;;;65.40;46.00;;;;;;;40.85;35.95;100895.75;4933215;29;20778;-82
2023/01/18 04:59:31;;;;;;;56.50;42.83;;;;;;;40.79;36.32;100895.13;4933850;29;20428;-82
2023/01/18 05:01:57;;;;;;;65.43;42.80;;;;;;;40.71;36.33;100893.25;4926802;29;20417;-82
2023/01/18 05:04:23;;;;;;;57.20;43.77;;;;;;;40.68;36.57;100893.09;4933648;29;20444;-82
2023/01/18 05:06:50;;;;;;;61.17;42.93;;;;;;;40.71;36.31;100900.59;4932356;29;20436;-82
2023/01/18 05:09:16;;;;;;;63.63;44.80;;;;;;;40.75;35.90;100898.81;4933103;29;20522;-80
2023/01/18 05:11:42;;;;;;;62.27;48.50;;;;;;;40.74;36.11;100898.00;4918917;29;20480;-80
2023/01/18 05:14:08;;;;;;;67.20;50.23;;;;;;;40.54;36.29;100899.53;4932812;29;20438;-80
2023/01/18 05:16:34;;;;;;;63.60;48.03;;;;;;;40.52;36.35;100909.13;4945020;29;20445;-80
2023/01/18 05:19:00;;;;;;;64.60;50.10;;;;;;;40.55;36.64;100906.56;4933211;29;20432;-80
2023/01/18 05:21:27;;;;;;;82.47;50.10;;;;;;;40.61;36.19;100907.19;4932287;29;20504;-82
2023/01/18 05:23:53;;;;;;;65.33;47.93;;;;;;;40.58;36.11;100907.84;4933340;29;21042;-82
2023/01/18 05:26:22;;;;;;;67.93;49.63;;;;;;;40.49;36.24;100907.84;4932728;29;20428;-82
2023/01/18 05:28:50;;;;;;;84.07;54.93;;;;;;;40.55;36.46;100916.63;4933288;29;20945;-80
2023/01/18 05:31:19;;;;;;;75.93;50.37;;;;;;;40.58;36.28;100918.72;4929220;29;20461;-80
2023/01/18 05:33:45;;;;;;;60.83;49.30;;;;;;;40.57;36.56;100922.53;4913998;29;20487;-80
2023/01/18 05:36:11;;;;;;;76.73;47.97;;;;;;;40.55;36.68;100922.06;4912967;29;20520;-80
2023/01/18 05:38:37;;;;;;;78.70;50.40;;;;;;;40.59;36.40;100930.38;4913571;29;20460;-80
2023/01/18 05:41:04;;;;;;;73.33;55.57;;;;;;;40.53;36.30;100935.19;4912258;29;21056;-80
2023/01/18 05:43:30;;;;;;;74.93;52.27;;;;;;;40.46;36.21;100943.81;4913721;29;20466;-80
2023/01/18 05:45:56;;;;;;;97.87;51.97;;;;;;;40.43;36.04;100951.81;4913947;29;20429;-82
2023/01/18 05:48:23;;;;;;;65.93;53.17;;;;;;;40.35;36.56;100944.47;4904668;29;20829;-80
2023/01/18 05:50:49;;;;;;;64.13;48.93;;;;;;;40.45;36.43;100947.63;4899896;29;20425;-80
2023/01/18 05:53:18;;;;;;;70.10;52.77;;;;;;;40.52;36.10;100952.63;4900774;29;20477;-80
2023/01/18 05:55:53;;;;;;;70.13;52.70;;;;;;;40.54;36.51;100955.81;4921085;29;20436;-80
2023/01/18 05:58:19;;;;;;;86.47;54.93;;;;;;;40.39;36.25;100959.00;4909965;29;20512;-80
2023/01/18 06:00:45;;;;;;;95.63;53.33;;;;;;;40.41;36.56;100962.22;4906355;29;20433;-80
2023/01/18 06:03:11;;;;;;;79.53;52.23;;;;;;;40.36;36.63;100967.81;4920851;29;20437;-80
2023/01/18 06:05:37;;;;;;;95.10;56.17;;;;;;;40.19;37.04;100972.09;4921362;29;20449;-80
2023/01/18 06:08:03;;;;;;;72.87;51.77;;;;;;;40.26;36.42;100972.41;4900755;29;21026;-81
2023/01/18 06:10:29;;;;;;;80.13;55.33;;;;;;;40.27;36.54;100975.97;4906114;29;20440;-79
2023/01/18 06:12:55;;;;;;;86.90;50.60;;;;;;;40.33;36.55;100979.31;4898426;29;20462;-78
2023/01/18 06:15:21;;;;;;;74.80;51.10;;;;;;;40.36;36.29;101000.41;4901036;29;20465;-79
2023/01/18 06:17:47;;;;;;;75.10;56.87;;;;;;;40.29;36.46;100996.25;4895379;29;20438;-78
2023/01/18 06:20:16;;;;;;;95.77;55.40;;;;;;;40.14;36.73;100999.44;4893269;29;20850;-83
2023/01/18 06:22:44;;;;;;;93.60;54.70;;;;;;;40.18;36.87;101008.56;4897509;29;20453;-78
2023/01/18 06:25:10;;;;;;;83.33;60.60;;;;;;;40.12;37.08;101012.53;4898993;29;20868;-83
2023/01/18 06:27:39;;;;;;;103.73;58.30;;;;;;;39.85;37.19;101013.59;4899095;29;20430;-87
2023/01/18 06:30:06;;;;;;;84.87;58.47;;;;;;;40.00;37.69;101023.22;4897874;29;20486;-83
2023/01/18 06:32:33;;;;;;;103.93;60.70;;;;;;;40.00;37.01;101029.44;4919071;29;20931;-81
2023/01/18 06:34:59;;;;;;;115.27;60.60;;;;;;;39.93;37.11;101031.03;4920008;29;20447;-84
2023/01/18 06:37:25;;;;;;;80.80;57.23;;;;;;;40.05;37.16;101036.69;4917125;29;20930;-86
2023/01/18 06:39:51;;;;;;;98.97;66.50;;;;;;;39.92;37.08;101043.00;4928079;29;20471;-84
2023/01/18 06:42:17;;;;;;;97.70;63.60;;;;;;;40.02;36.88;101048.97;4922780;29;20924;-89
2023/01/18 06:44:43;;;;;;;90.70;63.80;;;;;;;40.06;37.02;101054.56;4916572;29;20925;-86
2023/01/18 06:47:09;;;;;;;97.10;63.77;;;;;;;40.16;37.12;101053.47;4917643;29;20429;-80
2023/01/18 06:49:35;;;;;;;79.60;60.40;;;;;;;40.21;36.77;101054.13;4908112;29;20433;-87
2023/01/18 06:52:01;;;;;;;96.43;62.90;;;;;;;40.25;37.13;101055.09;4915879;29;20857;-87
2023/01/18 06:54:27;;;;;;;90.07;60.00;;;;;;;40.20;36.87;101057.16;4913832;29;20989;-80
2023/01/18 06:56:53;;;;;;;93.30;59.97;;;;;;;40.14;37.64;101066.56;4913645;29;20821;-89
2023/01/18 06:59:19;;;;;;;96.20;57.67;;;;;;;40.20;37.17;101076.97;4914048;29;20437;-79
2023/01/18 07:01:45;;;;;;;82.10;60.83;;;;;;;40.35;36.78;101074.94;4917602;29;20428;-80
2023/01/18 07:04:11;;;;;;;95.20;61.17;;;;;;;40.38;36.88;101074.28;4928888;29;20449;-84
2023/01/18 07:06:37;;;;;;;122.77;70.07;;;;;;;40.42;36.91;101083.41;4900596;29;20441;-87
2023/01/18 07:09:06;;;;;;;94.23;61.50;;;;;;;40.38;37.12;101083.25;4903489;29;20444;-83
2023/01/18 07:11:32;;;;;;;115.57;73.33;;;;;;;40.15;37.50;101082.56;4914481;29;20432;-87
2023/01/18 07:13:58;;;;;;;118.77;64.33;;;;;;;40.30;37.64;101086.75;4916208;29;20452;-86
2023/01/18 07:16:24;;;;;;;111.07;67.40;;;;;;;40.37;36.69;101089.78;4931368;29;20818;-87
2023/01/18 07:18:50;;;;;;;106.73;64.00;;;;;;;40.47;36.84;101094.97;4926294;29;20440;-88
2023/01/18 07:21:18;;;;;;;97.13;64.87;;;;;;;40.56;36.87;101100.41;4934225;29;20432;-77
2023/01/18 07:23:44;;;;;;;90.07;61.43;;;;;;;40.53;36.84;101096.41;4919300;29;20822;-84
2023/01/18 07:26:15;;;;;;;99.63;60.60;;;;;;;40.58;36.84;101114.50;4926330;29;20958;-84
2023/01/18 07:28:45;;;;;;;102.63;65.50;;;;;;;40.71;36.50;101110.81;4947859;29;20463;-86
2023/01/18 07:31:12;;;;;;;90.27;61.87;;;;;;;40.67;36.58;101107.13;4931973;29;20437;-87
2023/01/18 07:33:38;;;;;;;93.20;68.93;;;;;;;40.57;36.23;101117.50;4925765;29;20563;-86
2023/01/18 07:36:06;;;;;;;103.73;71.47;;;;;;;40.60;36.87;101123.13;4916602;29;20455;-86
2023/01/18 07:38:32;;;;;;;94.20;61.47;;;;;;;40.63;36.40;101127.13;4922057;29;20519;-88
2023/01/18 07:41:07;;;;;;;111.60;67.43;;;;;;;40.59;36.11;101132.41;4925515;29;20826;-86
2023/01/18 07:43:36;;;;;;;111.83;77.10;;;;;;;40.60;36.48;101130.47;4915671;29;20510;-88
2023/01/18 07:46:03;;;;;;;138.53;86.60;;;;;;;40.68;36.20;101141.34;4923956;29;20440;-87
2023/01/18 07:48:30;;;;;;;128.77;84.43;;;;;;;40.76;36.39;101145.19;4930592;29;20904;-86
2023/01/18 07:51:02;;;;;;;128.37;78.90;;;;;;;40.73;36.46;101143.94;4922620;29;20461;-78
2023/01/18 07:53:30;;;;;;;104.20;79.13;;;;;;;40.62;36.51;101147.28;4942226;29;20484;-80
2023/01/18 07:56:05;;;;;;;120.10;80.53;;;;;;;40.70;36.65;101155.47;4908630;29;20929;-80
2023/01/18 07:58:31;;;;;;;106.20;80.40;;;;;;;40.70;36.46;101154.63;4915567;29;20452;-85
2023/01/18 08:01:09;;;;;;;100.43;67.00;;;;;;;40.73;36.68;101156.72;4948655;29;20436;-83
2023/01/18 08:03:36;;;;;;;95.50;61.60;;;;;;;40.79;36.63;101158.19;4922480;29;20436;-87
2023/01/18 08:06:04;;;;;;;88.13;58.00;;;;;;;40.86;36.84;101155.78;4921810;29;20523;-83
2023/01/18 08:08:30;;;;;;;89.63;51.00;;;;;;;40.87;36.40;101156.56;4934215;29;21015;-81
2023/01/18 08:10:59;;;;;;;76.73;51.87;;;;;;;40.87;36.29;101165.53;4934226;29;20510;-83
2023/01/18 08:13:26;;;;;;;92.37;51.20;;;;;;;40.91;36.69;101168.44;4929865;29;20897;-86
2023/01/18 08:15:53;;;;;;;80.77;50.77;;;;;;;40.89;36.85;101168.75;4917937;29;20995;-84
2023/01/18 08:18:19;;;;;;;86.33;54.20;;;;;;;40.96;36.16;101176.47;4930659;29;20432;-84
2023/01/18 08:20:46;;;;;;;85.13;55.43;;;;;;;40.98;36.54;101174.22;4925839;29;20436;-87
2023/01/18 08:23:12;;;;;;;85.77;56.30;;;;;;;41.04;36.40;101172.94;4931407;29;20437;-82
2023/01/18 08:25:39;;;;;;;93.30;58.50;;;;;;;41.00;36.58;101171.97;4915472;29;20985;-81
2023/01/18 08:28:05;;;;;;;101.30;56.70;;;;;;;41.00;36.29;101178.19;4915404;29;20437;-84
2023/01/18 08:30:37;;;;;;;92.67;52.17;;;;;;;41.00;36.30;101169.25;4899682;29;20463;-84
2023/01/18 08:33:04;;;;;;;85.90;57.90;;;;;;;40.92;36.68;101172.78;4927602;29;20859;-81
2023/01/18 08:35:32;;;;;;;99.73;56.60;;;;;;;40.99;36.74;101179.31;4912112;29;20441;-81
2023/01/18 08:37:59;;;;;;;86.07;56.73;;;;;;;40.99;36.60;101168.44;4912145;29;20821;-86
2023/01/18 08:40:26;;;;;;;87.87;55.93;;;;;;;41.03;36.62;101169.41;4902542;29;20595;-86
2023/01/18 08:42:57;;;;;;;80.17;51.17;;;;;;;41.10;36.54;101179.81;4915072;29;20453;-86
2023/01/18 08:45:23;;;;;;;82.43;56.90;;;;;;;41.14;36.49;101169.91;4897315;29;20819;-89
2023/01/18 08:47:59;;;;;;;76.27;51.77;;;;;;;41.22;36.45;101179.16;4902143;29;20460;-91
2023/01/18 08:50:26;;;;;;;82.93;56.27;;;;;;;41.31;36.28;101169.06;4896504;29;20534;-86
2023/01/18 08:52:52;;;;;;;81.03;50.60;;;;;;;41.27;36.47;101165.41;4901288;29;20975;-88
2023/01/18 08:55:20;;;;;;;86.97;52.10;;;;;;;41.36;36.19;101170.84;4895832;29;21002;-90
2023/01/18 08:57:47;;;;;;;88.23;53.17;;;;;;;41.40;36.17;101174.53;4896540;29;20525;-80
2023/01/18 09:00:13;;;;;;;69.27;51.23;;;;;;;41.38;35.83;101168.63;4902677;29;20443;-83
2023/01/18 09:02:40;;;;;;;83.60;50.30;;;;;;;41.32;36.26;101174.22;4915765;29;20476;-83
2023/01/18 09:05:06;;;;;;;65.50;48.77;;;;;;;41.34;36.07;101176.63;4912007;29;20425;-84
2023/01/18 09:07:32;;;;;;;71.90;51.77;;;;;;;41.42;36.48;101169.56;4895879;29;20519;-87
2023/01/18 09:09:58;;;;;;;78.67;53.33;;;;;;;41.39;36.35;101175.66;4903177;29;20475;-78
2023/01/18 09:12:24;;;;;;;84.43;51.37;;;;;;;41.43;36.30;101177.41;4909548;29;20555;-82
2023/01/18 09:14:50;;;;;;;102.30;53.50;;;;;;;41.46;35.84;101186.84;4897069;29;20433;-82
2023/01/18 09:17:18;;;;;;;81.67;51.53;;;;;;;41.56;35.63;101187.31;4880128;29;20425;-77
2023/01/18 09:19:44;;;;;;;81.93;52.07;;;;;;;41.59;35.53;101185.84;4896294;29;20430;-81
2023/01/18 09:22:10;;;;;;;90.40;52.83;;;;;;;41.65;35.68;101181.03;4911019;29;20432;-86
2023/01/18 09:24:37;;;;;;;65.70;43.67;;;;;;;41.65;35.54;101179.13;4912915;29;20444;-79
2023/01/18 09:27:05;;;;;;;59.47;35.67;;;;;;;41.58;35.75;101178.81;4896945;29;20935;-79
2023/01/18 09:29:31;;;;;;;65.97;34.53;;;;;;;41.67;35.07;101179.59;4898592;29;20438;-83
2023/01/18 09:31:59;;;;;;;61.73;33.90;;;;;;;41.73;35.52;101178.28;4901027;29;20460;-80
2023/01/18 09:34:25;;;;;;;63.40;37.90;;;;;;;41.77;34.94;101187.44;4930920;29;20471;-80
2023/01/18 09:36:52;;;;;;;54.33;39.17;;;;;;;41.83;35.21;101186.13;4916744;29;20454;-81
2023/01/18 09:39:19;;;;;;;71.33;41.97;;;;;;;41.88;35.15;101177.00;4905237;29;20429;-88
2023/01/18 09:41:55;;;;;;;61.53;39.10;;;;;;;41.95;34.50;101176.47;4938781;29;20535;-83
2023/01/18 09:44:31;;;;;;;49.77;38.00;;;;;;;41.89;34.82;101175.88;4931356;29;20432;-86
2023/01/18 09:47:05;;;;;;;63.23;38.73;;;;;;;41.82;34.95;101178.31;4930329;29;20460;-87
2023/01/18 09:49:50;;;;;;;48.20;35.87;;;;;;;41.85;34.70;101174.91;4923808;29;20435;-84
2023/01/18 09:52:31;;;;;;;50.23;36.87;;;;;;;41.86;34.60;101171.06;4921102;29;21066;-88
2023/01/18 09:55:12;;;;;;;57.53;36.90;;;;;;;41.88;34.53;101173.47;4933936;29;20432;-88
2023/01/18 09:57:56;;;;;;;83.33;43.10;;;;;;;41.98;34.51;101168.44;4933961;29;20436;-89
2023/01/18 10:00:26;;;;;;;51.80;36.27;;;;;;;42.09;33.97;101158.78;4931834;29;20482;-84
2023/01/18 10:03:38;;;;;;;49.40;36.43;;;;;;;42.13;34.01;101157.00;4936932;29;20432;-90
2023/01/18 10:06:14;;;;;;;55.50;38.60;;;;;;;42.26;33.69;101148.94;4889861;29;20454;-82
2023/01/18 10:08:52;;;;;;;47.73;34.83;;;;;;;42.21;33.66;101147.19;4938572;29;20542;-85
2023/01/18 10:11:30;;;;;;;53.47;35.43;;;;;;;42.18;33.33;101152.53;4924586;29;20442;-91
2023/01/18 10:14:04;;;;;;;58.07;40.50;;;;;;;42.16;33.31;101152.84;4902079;29;20472;-82
2023/01/18 10:16:33;;;;;;;65.47;39.37;;;;;;;42.19;34.03;101146.75;4936917;29;20481;-81
2023/01/18 10:19:02;;;;;;;55.83;40.17;;;;;;;42.22;34.03;101140.63;4920865;29;20420;-89
2023/01/18 10:21:40;;;;;;;58.37;39.70;;;;;;;42.25;34.07;101139.97;4938084;29;20420;-85
2023/01/18 10:24:27;;;;;;;51.87;40.33;;;;;;;42.36;33.84;101137.66;4923506;29;20441;-87
2023/01/18 10:27:09;;;;;;;54.53;40.10;;;;;;;42.40;33.76;101136.66;4920593;29;20852;-88
2023/01/18 10:29:47;;;;;;;62.27;39.60;;;;;;;42.45;33.77;101130.22;4908591;29;20436;-87
2023/01/18 10:32:20;;;;;;;52.27;36.40;;;;;;;42.44;34.41;101131.34;4920587;29;20577;-88
2023/01/18 10:34:50;;;;;;;70.93;36.30;;;;;;;42.45;34.46;101122.03;4934352;29;20609;-87
2023/01/18 10:37:25;;;;;;;63.60;34.93;;;;;;;42.49;34.16;101120.25;4917303;29;20429;-84
2023/01/18 10:39:59;;;;;;;57.00;36.50;;;;;;;42.40;34.26;101108.59;4919606;29;20870;-79
2023/01/18 10:42:50;;;;;;;47.53;34.43;;;;;;;42.50;34.10;101096.50;4929492;29;20426;-82
2023/01/18 10:45:28;;;;;;;62.70;35.33;;;;;;;42.46;34.14;101106.47;4920868;29;20421;-80
2023/01/18 10:47:56;;;;;;;58.60;37.40;;;;;;;42.46;34.34;101099.06;4917325;29;20436;-88
2023/01/18 10:50:42;;;;;;;48.30;35.07;;;;;;;42.54;34.36;101087.31;4938495;29;20435;-85
2023/01/18 10:53:32;;;;;;;67.87;37.67;;;;;;;42.55;34.09;101085.38;4901243;29;20462;-85
2023/01/18 10:56:01;;;;;;;48.63;34.07;;;;;;;42.53;33.74;101087.63;4915412;29;20421;-89
2023/01/18 10:58:30;;;;;;;44.27;34.00;;;;;;;42.51;33.79;101082.53;4919676;29;20430;-87
2023/01/18 11:00:58;;;;;;;63.93;35.27;;;;;;;42.56;34.07;101081.53;4919994;29;20430;-83
2023/01/18 11:03:25;;;;;;;52.50;34.17;;;;;;;42.60;33.99;101077.84;4933346;29;20447;-88
2023/01/18 11:05:52;;;;;;;55.53;35.80;;;;;;;42.58;34.13;101065.66;4917272;29;20555;-88
2023/01/18 11:08:30;;;;;;;49.47;34.57;;;;;;;42.62;34.01;101074.75;4934399;29;20441;-87
2023/01/18 11:11:05;;;;;;;60.83;32.70;;;;;;;42.65;33.68;101060.44;4932879;29;20999;-82
2023/01/18 11:13:43;;;;;;;50.07;32.70;;;;;;;42.55;33.52;101058.13;4910516;29;20551;-83
2023/01/18 11:16:22;;;;;;;42.93;28.73;;;;;;;42.58;33.63;101044.63;4930722;29;20448;-84
2023/01/18 11:19:16;;;;;;;44.93;29.57;;;;;;;42.46;32.55;101050.00;4932274;29;20492;-80
2023/01/18 11:21:48;;;;;;;44.10;31.90;;;;;;;42.58;33.13;101041.09;4915157;29;20405;-83
2023/01/18 11:24:17;;;;;;;69.13;31.80;;;;;;;42.57;32.93;101036.75;4919142;29;20990;-84
2023/01/18 11:27:00;;;;;;;61.17;30.23;;;;;;;42.57;33.12;101034.03;4926339;29;20591;-80
2023/01/18 11:29:38;;;;;;;51.30;36.43;;;;;;;42.46;33.97;101030.91;4905232;29;20424;-82
2023/01/18 11:32:08;;;;;;;54.60;36.47;;;;;;;42.55;33.81;101028.91;4918673;29;20915;-81
2023/01/18 11:34:42;;;;;;;63.37;38.60;;;;;;;42.73;33.64;101028.78;4934589;29;20475;-82
2023/01/18 11:37:35;;;;;;;56.67;33.63;;;;;;;42.70;33.71;101024.78;4916801;29;20443;-89
2023/01/18 11:40:21;;;;;;;47.00;31.83;;;;;;;42.69;33.72;101009.53;4931374;29;20437;-85
2023/01/18 11:42:52;;;;;;;44.83;29.47;;;;;;;42.67;33.26;101011.03;4917848;29;20854;-86
2023/01/18 11:45:30;;;;;;;53.13;32.10;;;;;;;42.63;33.68;101003.50;4930558;29;20452;-85
2023/01/18 11:48:28;;;;;;;46.63;30.07;;;;;;;42.62;33.24;101004.63;4932767;29;20499;-88
2023/01/18 11:51:16;;;;;;;48.77;32.37;;;;;;;42.68;33.22;101001.72;4929841;29;20822;-87
2023/01/18 11:54:07;;;;;;;38.33;28.30;;;;;;;42.51;33.94;100989.00;4913947;29;20473;-86
2023/01/18 11:59:20;;;;;;;47.13;28.33;;;;;;;42.64;33.06;100977.03;4905996;29;20462;-86
2023/01/18 12:02:07;;;;;;;50.67;32.50;;;;;;;42.63;33.41;100973.50;4881100;29;20794;-83